sensor_id;sensor_type;location;lat;lon;timestamp;P1;durP1;ratioP1;P2;durP2;ratioP2
46116;SDS011;32591;48.102;11.772;2022-09-24T00:01:22;5.03;;;3.72;;
46116;SDS011;32591;48.102;11.772;2022-09-24T00:03:52;6.22;;;4.25;;
46116;SDS011;32591;48.102;11.772;2022-09-24T00:06:21;6.78;;;3.78;;
46116;SDS011;32591;48.102;11.772;2022-09-24T00:08:49;6.05;;;3.50;;
46116;SDS011;32591;48.102;11.772;2022-09-24T00:11:19;6.88;;;3.60;;
46116;SDS011;32591;48.102;11.772;2022-09-24T00:13:48;6.70;;;3.58;;
46116;SDS011;32591;48.102;11.772;2022-09-24T00:16:17;7.10;;;3.60;;
46116;SDS011;32591;48.102;11.772;2022-09-24T00:18:47;5.75;;;4.03;;
46116;SDS011;32591;48.102;11.772;2022-09-24T00:21:15;4.97;;;3.65;;
46116;SDS011;32591;48.102;11.772;2022-09-24T00:23:44;6.53;;;3.95;;
46116;SDS011;32591;48.102;11.772;2022-09-24T00:26:15;6.07;;;3.63;;
46116;SDS011;32591;48.102;11.772;2022-09-24T00:29:02;7.07;;;3.53;;
46116;SDS011;32591;48.102;11.772;2022-09-24T00:31:30;3.92;;;3.40;;
46116;SDS011;32591;48.102;11.772;2022-09-24T00:33:57;7.28;;;3.58;;
46116;SDS011;32591;48.102;11.772;2022-09-24T00:36:25;4.72;;;3.50;;
46116;SDS011;32591;48.102;11.772;2022-09-24T00:38:53;6.72;;;3.88;;
46116;SDS011;32591;48.102;11.772;2022-09-24T00:41:23;7.30;;;4.35;;
46116;SDS011;32591;48.102;11.772;2022-09-24T00:43:53;6.57;;;3.42;;
46116;SDS011;32591;48.102;11.772;2022-09-24T00:46:22;6.35;;;3.53;;
46116;SDS011;32591;48.102;11.772;2022-09-24T00:48:54;5.47;;;3.42;;
46116;SDS011;32591;48.102;11.772;2022-09-24T00:51:25;5.60;;;3.28;;
46116;SDS011;32591;48.102;11.772;2022-09-24T00:53:55;8.10;;;3.53;;
46116;SDS011;32591;48.102;11.772;2022-09-24T00:56:28;4.68;;;3.15;;
46116;SDS011;32591;48.102;11.772;2022-09-24T00:58:58;3.90;;;3.15;;
46116;SDS011;32591;48.102;11.772;2022-09-24T01:01:29;8.48;;;3.70;;
46116;SDS011;32591;48.102;11.772;2022-09-24T01:03:56;4.55;;;3.65;;
46116;SDS011;32591;48.102;11.772;2022-09-24T01:06:25;5.72;;;3.92;;
46116;SDS011;32591;48.102;11.772;2022-09-24T01:08:53;7.43;;;3.15;;
46116;SDS011;32591;48.102;11.772;2022-09-24T01:11:35;4.32;;;2.92;;
46116;SDS011;32591;48.102;11.772;2022-09-24T01:17:17;4.75;;;3.58;;
46116;SDS011;32591;48.102;11.772;2022-09-24T01:19:57;4.85;;;3.17;;
46116;SDS011;32591;48.102;11.772;2022-09-24T01:22:47;4.68;;;3.38;;
46116;SDS011;32591;48.102;11.772;2022-09-24T01:25:30;5.07;;;3.50;;
46116;SDS011;32591;48.102;11.772;2022-09-24T01:28:17;5.88;;;3.25;;
46116;SDS011;32591;48.102;11.772;2022-09-24T01:31:02;6.25;;;2.95;;
46116;SDS011;32591;48.102;11.772;2022-09-24T01:33:36;5.10;;;3.10;;
46116;SDS011;32591;48.102;11.772;2022-09-24T01:36:03;3.42;;;2.78;;
46116;SDS011;32591;48.102;11.772;2022-09-24T01:38:34;4.43;;;3.00;;
46116;SDS011;32591;48.102;11.772;2022-09-24T01:41:06;6.30;;;3.47;;
46116;SDS011;32591;48.102;11.772;2022-09-24T01:43:36;4.13;;;3.08;;
46116;SDS011;32591;48.102;11.772;2022-09-24T01:46:05;5.50;;;3.58;;
46116;SDS011;32591;48.102;11.772;2022-09-24T01:48:34;4.03;;;3.35;;
46116;SDS011;32591;48.102;11.772;2022-09-24T01:51:04;4.47;;;3.10;;
46116;SDS011;32591;48.102;11.772;2022-09-24T01:53:36;4.15;;;3.00;;
46116;SDS011;32591;48.102;11.772;2022-09-24T01:56:09;4.82;;;3.15;;
46116;SDS011;32591;48.102;11.772;2022-09-24T01:58:43;5.05;;;3.17;;
46116;SDS011;32591;48.102;11.772;2022-09-24T02:01:18;4.05;;;3.15;;
46116;SDS011;32591;48.102;11.772;2022-09-24T02:03:50;4.03;;;3.00;;
46116;SDS011;32591;48.102;11.772;2022-09-24T02:06:24;4.25;;;3.00;;
46116;SDS011;32591;48.102;11.772;2022-09-24T02:08:56;5.68;;;3.05;;
46116;SDS011;32591;48.102;11.772;2022-09-24T02:11:24;4.75;;;3.28;;
46116;SDS011;32591;48.102;11.772;2022-09-24T02:13:53;4.95;;;3.30;;
46116;SDS011;32591;48.102;11.772;2022-09-24T02:16:27;3.70;;;2.97;;
46116;SDS011;32591;48.102;11.772;2022-09-24T02:18:59;4.57;;;2.83;;
46116;SDS011;32591;48.102;11.772;2022-09-24T02:21:30;4.22;;;2.80;;
46116;SDS011;32591;48.102;11.772;2022-09-24T02:24:00;5.63;;;3.17;;
46116;SDS011;32591;48.102;11.772;2022-09-24T02:26:32;3.95;;;2.97;;
46116;SDS011;32591;48.102;11.772;2022-09-24T02:29:00;3.17;;;2.70;;
46116;SDS011;32591;48.102;11.772;2022-09-24T02:31:29;4.18;;;2.95;;
46116;SDS011;32591;48.102;11.772;2022-09-24T02:33:59;4.93;;;3.13;;
46116;SDS011;32591;48.102;11.772;2022-09-24T02:36:50;3.88;;;3.10;;
46116;SDS011;32591;48.102;11.772;2022-09-24T02:39:19;5.60;;;3.05;;
46116;SDS011;32591;48.102;11.772;2022-09-24T02:41:47;5.13;;;2.97;;
46116;SDS011;32591;48.102;11.772;2022-09-24T02:44:15;4.60;;;2.83;;
46116;SDS011;32591;48.102;11.772;2022-09-24T02:46:45;6.15;;;2.95;;
46116;SDS011;32591;48.102;11.772;2022-09-24T02:49:12;4.30;;;3.55;;
46116;SDS011;32591;48.102;11.772;2022-09-24T02:51:41;4.63;;;2.95;;
46116;SDS011;32591;48.102;11.772;2022-09-24T02:54:09;3.92;;;3.00;;
46116;SDS011;32591;48.102;11.772;2022-09-24T02:56:37;4.78;;;2.78;;
46116;SDS011;32591;48.102;11.772;2022-09-24T02:59:04;5.20;;;3.53;;
46116;SDS011;32591;48.102;11.772;2022-09-24T03:01:32;4.55;;;3.00;;
46116;SDS011;32591;48.102;11.772;2022-09-24T03:04:01;4.15;;;3.03;;
46116;SDS011;32591;48.102;11.772;2022-09-24T03:06:28;6.03;;;2.78;;
46116;SDS011;32591;48.102;11.772;2022-09-24T03:08:55;6.05;;;3.13;;
46116;SDS011;32591;48.102;11.772;2022-09-24T03:11:22;4.68;;;3.25;;
46116;SDS011;32591;48.102;11.772;2022-09-24T03:13:50;5.70;;;2.80;;
46116;SDS011;32591;48.102;11.772;2022-09-24T03:16:17;3.10;;;2.75;;
46116;SDS011;32591;48.102;11.772;2022-09-24T03:18:45;4.00;;;3.10;;
46116;SDS011;32591;48.102;11.772;2022-09-24T03:21:14;5.03;;;2.80;;
46116;SDS011;32591;48.102;11.772;2022-09-24T03:23:44;4.15;;;2.90;;
46116;SDS011;32591;48.102;11.772;2022-09-24T03:26:12;4.82;;;3.13;;
46116;SDS011;32591;48.102;11.772;2022-09-24T03:28:39;6.53;;;3.10;;
46116;SDS011;32591;48.102;11.772;2022-09-24T03:31:06;4.60;;;3.17;;
46116;SDS011;32591;48.102;11.772;2022-09-24T03:33:34;4.32;;;2.72;;
46116;SDS011;32591;48.102;11.772;2022-09-24T03:36:05;4.40;;;3.35;;
46116;SDS011;32591;48.102;11.772;2022-09-24T03:38:35;3.75;;;2.78;;
46116;SDS011;32591;48.102;11.772;2022-09-24T03:41:05;5.68;;;3.72;;
46116;SDS011;32591;48.102;11.772;2022-09-24T03:43:34;4.90;;;3.30;;
46116;SDS011;32591;48.102;11.772;2022-09-24T03:46:02;5.13;;;3.22;;
46116;SDS011;32591;48.102;11.772;2022-09-24T03:48:32;2.92;;;2.58;;
46116;SDS011;32591;48.102;11.772;2022-09-24T03:51:02;5.00;;;3.60;;
46116;SDS011;32591;48.102;11.772;2022-09-24T03:53:29;3.88;;;2.97;;
46116;SDS011;32591;48.102;11.772;2022-09-24T03:55:58;5.22;;;2.92;;
46116;SDS011;32591;48.102;11.772;2022-09-24T03:58:27;4.03;;;2.85;;
46116;SDS011;32591;48.102;11.772;2022-09-24T04:00:55;4.30;;;3.00;;
46116;SDS011;32591;48.102;11.772;2022-09-24T04:03:23;3.65;;;3.03;;
46116;SDS011;32591;48.102;11.772;2022-09-24T04:05:50;4.32;;;2.85;;
46116;SDS011;32591;48.102;11.772;2022-09-24T04:08:17;6.03;;;2.90;;
46116;SDS011;32591;48.102;11.772;2022-09-24T04:10:45;6.45;;;2.45;;
46116;SDS011;32591;48.102;11.772;2022-09-24T04:13:15;4.00;;;2.80;;
46116;SDS011;32591;48.102;11.772;2022-09-24T04:15:43;3.28;;;2.45;;
46116;SDS011;32591;48.102;11.772;2022-09-24T04:18:10;3.40;;;2.60;;
46116;SDS011;32591;48.102;11.772;2022-09-24T04:20:38;5.55;;;2.72;;
46116;SDS011;32591;48.102;11.772;2022-09-24T04:23:05;4.13;;;3.08;;
46116;SDS011;32591;48.102;11.772;2022-09-24T04:25:33;7.45;;;3.00;;
46116;SDS011;32591;48.102;11.772;2022-09-24T04:28:02;7.03;;;2.78;;
46116;SDS011;32591;48.102;11.772;2022-09-24T04:30:33;4.50;;;2.70;;
46116;SDS011;32591;48.102;11.772;2022-09-24T04:33:01;4.30;;;2.65;;
46116;SDS011;32591;48.102;11.772;2022-09-24T04:35:29;5.25;;;2.90;;
46116;SDS011;32591;48.102;11.772;2022-09-24T04:37:57;4.07;;;2.53;;
46116;SDS011;32591;48.102;11.772;2022-09-24T04:40:25;5.82;;;2.83;;
46116;SDS011;32591;48.102;11.772;2022-09-24T04:42:53;3.38;;;2.70;;
46116;SDS011;32591;48.102;11.772;2022-09-24T04:45:20;4.15;;;2.50;;
46116;SDS011;32591;48.102;11.772;2022-09-24T04:47:50;3.83;;;2.53;;
46116;SDS011;32591;48.102;11.772;2022-09-24T04:50:21;5.82;;;3.22;;
46116;SDS011;32591;48.102;11.772;2022-09-24T04:52:49;6.85;;;3.10;;
46116;SDS011;32591;48.102;11.772;2022-09-24T04:55:16;7.10;;;2.97;;
46116;SDS011;32591;48.102;11.772;2022-09-24T04:57:44;3.47;;;2.63;;
46116;SDS011;32591;48.102;11.772;2022-09-24T05:00:13;4.10;;;2.75;;
46116;SDS011;32591;48.102;11.772;2022-09-24T05:02:43;5.88;;;2.85;;
46116;SDS011;32591;48.102;11.772;2022-09-24T05:05:12;4.68;;;2.60;;
46116;SDS011;32591;48.102;11.772;2022-09-24T05:07:40;3.75;;;3.00;;
46116;SDS011;32591;48.102;11.772;2022-09-24T05:10:08;3.70;;;2.97;;
46116;SDS011;32591;48.102;11.772;2022-09-24T05:12:35;4.55;;;2.55;;
46116;SDS011;32591;48.102;11.772;2022-09-24T05:15:05;6.13;;;3.03;;
46116;SDS011;32591;48.102;11.772;2022-09-24T05:17:36;4.60;;;3.15;;
46116;SDS011;32591;48.102;11.772;2022-09-24T05:20:04;4.55;;;3.03;;
46116;SDS011;32591;48.102;11.772;2022-09-24T05:22:34;3.75;;;2.83;;
46116;SDS011;32591;48.102;11.772;2022-09-24T05:25:01;4.63;;;2.67;;
46116;SDS011;32591;48.102;11.772;2022-09-24T05:27:28;4.55;;;2.63;;
46116;SDS011;32591;48.102;11.772;2022-09-24T05:29:55;3.97;;;2.53;;
46116;SDS011;32591;48.102;11.772;2022-09-24T05:32:22;4.60;;;2.78;;
46116;SDS011;32591;48.102;11.772;2022-09-24T05:34:49;4.57;;;2.70;;
46116;SDS011;32591;48.102;11.772;2022-09-24T05:37:17;4.35;;;2.75;;
46116;SDS011;32591;48.102;11.772;2022-09-24T05:39:46;7.05;;;3.40;;
46116;SDS011;32591;48.102;11.772;2022-09-24T05:42:14;5.78;;;2.60;;
46116;SDS011;32591;48.102;11.772;2022-09-24T05:44:41;5.25;;;2.33;;
46116;SDS011;32591;48.102;11.772;2022-09-24T05:47:08;4.30;;;2.88;;
46116;SDS011;32591;48.102;11.772;2022-09-24T05:49:36;5.00;;;3.05;;
46116;SDS011;32591;48.102;11.772;2022-09-24T05:52:03;3.55;;;2.40;;
46116;SDS011;32591;48.102;11.772;2022-09-24T05:54:31;5.82;;;3.10;;
46116;SDS011;32591;48.102;11.772;2022-09-24T05:56:59;4.25;;;2.42;;
46116;SDS011;32591;48.102;11.772;2022-09-24T05:59:26;5.35;;;3.20;;
46116;SDS011;32591;48.102;11.772;2022-09-24T06:01:53;5.45;;;2.80;;
46116;SDS011;32591;48.102;11.772;2022-09-24T06:04:20;4.63;;;3.10;;
46116;SDS011;32591;48.102;11.772;2022-09-24T06:06:47;5.60;;;3.13;;
46116;SDS011;32591;48.102;11.772;2022-09-24T06:09:14;5.53;;;2.97;;
46116;SDS011;32591;48.102;11.772;2022-09-24T06:11:41;4.60;;;2.85;;
46116;SDS011;32591;48.102;11.772;2022-09-24T06:14:09;4.72;;;2.83;;
46116;SDS011;32591;48.102;11.772;2022-09-24T06:16:37;3.40;;;2.60;;
46116;SDS011;32591;48.102;11.772;2022-09-24T06:19:04;7.13;;;3.28;;
46116;SDS011;32591;48.102;11.772;2022-09-24T06:21:31;6.70;;;3.20;;
46116;SDS011;32591;48.102;11.772;2022-09-24T06:23:58;5.57;;;3.35;;
46116;SDS011;32591;48.102;11.772;2022-09-24T06:26:25;4.90;;;2.92;;
46116;SDS011;32591;48.102;11.772;2022-09-24T06:28:53;7.18;;;2.67;;
46116;SDS011;32591;48.102;11.772;2022-09-24T06:31:21;4.65;;;2.90;;
46116;SDS011;32591;48.102;11.772;2022-09-24T06:33:48;5.18;;;2.83;;
46116;SDS011;32591;48.102;11.772;2022-09-24T06:36:15;5.55;;;2.67;;
46116;SDS011;32591;48.102;11.772;2022-09-24T06:38:42;4.47;;;2.75;;
46116;SDS011;32591;48.102;11.772;2022-09-24T06:41:09;5.05;;;2.83;;
46116;SDS011;32591;48.102;11.772;2022-09-24T06:43:36;4.78;;;2.30;;
46116;SDS011;32591;48.102;11.772;2022-09-24T06:46:04;4.25;;;2.80;;
46116;SDS011;32591;48.102;11.772;2022-09-24T06:48:32;3.95;;;2.65;;
46116;SDS011;32591;48.102;11.772;2022-09-24T06:51:03;6.03;;;2.80;;
46116;SDS011;32591;48.102;11.772;2022-09-24T06:53:30;5.10;;;2.65;;
46116;SDS011;32591;48.102;11.772;2022-09-24T06:55:57;5.20;;;3.10;;
46116;SDS011;32591;48.102;11.772;2022-09-24T06:58:27;5.40;;;2.70;;
46116;SDS011;32591;48.102;11.772;2022-09-24T07:00:55;4.32;;;2.58;;
46116;SDS011;32591;48.102;11.772;2022-09-24T07:03:25;6.35;;;2.60;;
46116;SDS011;32591;48.102;11.772;2022-09-24T07:05:58;4.05;;;3.03;;
46116;SDS011;32591;48.102;11.772;2022-09-24T07:08:26;4.60;;;2.55;;
46116;SDS011;32591;48.102;11.772;2022-09-24T07:10:54;3.33;;;2.40;;
46116;SDS011;32591;48.102;11.772;2022-09-24T07:13:21;5.50;;;2.95;;
46116;SDS011;32591;48.102;11.772;2022-09-24T07:15:49;3.65;;;2.83;;
46116;SDS011;32591;48.102;11.772;2022-09-24T07:18:17;4.38;;;2.83;;
46116;SDS011;32591;48.102;11.772;2022-09-24T07:20:49;3.97;;;2.88;;
46116;SDS011;32591;48.102;11.772;2022-09-24T07:23:18;4.15;;;2.42;;
46116;SDS011;32591;48.102;11.772;2022-09-24T07:25:45;7.32;;;3.22;;
46116;SDS011;32591;48.102;11.772;2022-09-24T07:28:13;3.35;;;2.53;;
46116;SDS011;32591;48.102;11.772;2022-09-24T07:30:41;8.07;;;3.00;;
46116;SDS011;32591;48.102;11.772;2022-09-24T07:33:08;4.28;;;3.20;;
46116;SDS011;32591;48.102;11.772;2022-09-24T07:35:36;4.45;;;2.70;;
46116;SDS011;32591;48.102;11.772;2022-09-24T07:38:04;4.05;;;2.72;;
46116;SDS011;32591;48.102;11.772;2022-09-24T07:40:35;7.82;;;2.85;;
46116;SDS011;32591;48.102;11.772;2022-09-24T07:43:02;8.27;;;3.15;;
46116;SDS011;32591;48.102;11.772;2022-09-24T07:45:31;7.20;;;2.97;;
46116;SDS011;32591;48.102;11.772;2022-09-24T07:47:58;4.30;;;3.25;;
46116;SDS011;32591;48.102;11.772;2022-09-24T07:50:27;5.75;;;2.75;;
46116;SDS011;32591;48.102;11.772;2022-09-24T07:52:56;4.30;;;3.00;;
46116;SDS011;32591;48.102;11.772;2022-09-24T07:55:24;5.32;;;3.17;;
46116;SDS011;32591;48.102;11.772;2022-09-24T07:57:53;5.05;;;3.28;;
46116;SDS011;32591;48.102;11.772;2022-09-24T08:00:22;4.63;;;3.13;;
46116;SDS011;32591;48.102;11.772;2022-09-24T08:02:50;4.28;;;2.80;;
46116;SDS011;32591;48.102;11.772;2022-09-24T08:05:18;3.97;;;3.33;;
46116;SDS011;32591;48.102;11.772;2022-09-24T08:07:49;4.13;;;3.03;;
46116;SDS011;32591;48.102;11.772;2022-09-24T08:10:17;4.35;;;3.10;;
46116;SDS011;32591;48.102;11.772;2022-09-24T08:12:44;5.90;;;3.03;;
46116;SDS011;32591;48.102;11.772;2022-09-24T08:15:13;4.78;;;2.90;;
46116;SDS011;32591;48.102;11.772;2022-09-24T08:17:40;5.60;;;3.45;;
46116;SDS011;32591;48.102;11.772;2022-09-24T08:20:07;7.90;;;3.10;;
46116;SDS011;32591;48.102;11.772;2022-09-24T08:22:36;4.93;;;3.40;;
46116;SDS011;32591;48.102;11.772;2022-09-24T08:25:03;7.55;;;4.18;;
46116;SDS011;32591;48.102;11.772;2022-09-24T08:27:31;5.03;;;3.38;;
46116;SDS011;32591;48.102;11.772;2022-09-24T08:30:01;4.53;;;2.75;;
46116;SDS011;32591;48.102;11.772;2022-09-24T08:32:30;5.05;;;2.58;;
46116;SDS011;32591;48.102;11.772;2022-09-24T08:34:57;5.30;;;2.78;;
46116;SDS011;32591;48.102;11.772;2022-09-24T08:37:24;4.65;;;3.10;;
46116;SDS011;32591;48.102;11.772;2022-09-24T08:39:52;5.20;;;3.60;;
46116;SDS011;32591;48.102;11.772;2022-09-24T08:42:24;5.05;;;3.38;;
46116;SDS011;32591;48.102;11.772;2022-09-24T08:45:00;4.88;;;3.53;;
46116;SDS011;32591;48.102;11.772;2022-09-24T08:47:49;4.85;;;3.38;;
46116;SDS011;32591;48.102;11.772;2022-09-24T08:50:21;6.85;;;3.67;;
46116;SDS011;32591;48.102;11.772;2022-09-24T08:52:56;5.53;;;3.15;;
46116;SDS011;32591;48.102;11.772;2022-09-24T08:55:39;4.75;;;3.35;;
46116;SDS011;32591;48.102;11.772;2022-09-24T09:01:04;4.50;;;3.30;;
46116;SDS011;32591;48.102;11.772;2022-09-24T09:03:42;15.82;;;5.40;;
46116;SDS011;32591;48.102;11.772;2022-09-24T09:06:15;6.35;;;4.30;;
46116;SDS011;32591;48.102;11.772;2022-09-24T09:09:10;5.57;;;4.82;;
46116;SDS011;32591;48.102;11.772;2022-09-24T09:11:41;6.18;;;4.60;;
46116;SDS011;32591;48.102;11.772;2022-09-24T09:14:13;5.35;;;3.53;;
46116;SDS011;32591;48.102;11.772;2022-09-24T09:16:45;5.68;;;3.85;;
46116;SDS011;32591;48.102;11.772;2022-09-24T09:19:18;4.85;;;3.72;;
46116;SDS011;32591;48.102;11.772;2022-09-24T09:21:53;11.48;;;3.30;;
46116;SDS011;32591;48.102;11.772;2022-09-24T09:24:25;5.53;;;3.85;;
46116;SDS011;32591;48.102;11.772;2022-09-24T09:27:00;7.17;;;4.37;;
46116;SDS011;32591;48.102;11.772;2022-09-24T09:29:28;7.82;;;4.20;;
46116;SDS011;32591;48.102;11.772;2022-09-24T09:32:00;3.58;;;2.85;;
46116;SDS011;32591;48.102;11.772;2022-09-24T09:37:31;7.72;;;3.20;;
46116;SDS011;32591;48.102;11.772;2022-09-24T09:40:08;5.93;;;3.08;;
46116;SDS011;32591;48.102;11.772;2022-09-24T09:42:57;4.18;;;3.17;;
46116;SDS011;32591;48.102;11.772;2022-09-24T09:45:29;6.82;;;3.17;;
46116;SDS011;32591;48.102;11.772;2022-09-24T09:48:01;5.93;;;3.00;;
46116;SDS011;32591;48.102;11.772;2022-09-24T09:50:32;4.93;;;3.30;;
46116;SDS011;32591;48.102;11.772;2022-09-24T09:53:03;4.38;;;3.20;;
46116;SDS011;32591;48.102;11.772;2022-09-24T09:55:31;5.30;;;3.42;;
46116;SDS011;32591;48.102;11.772;2022-09-24T09:58:10;5.07;;;2.85;;
46116;SDS011;32591;48.102;11.772;2022-09-24T10:00:44;4.45;;;2.92;;
46116;SDS011;32591;48.102;11.772;2022-09-24T10:03:20;4.07;;;2.90;;
46116;SDS011;32591;48.102;11.772;2022-09-24T10:05:52;3.72;;;2.28;;
46116;SDS011;32591;48.102;11.772;2022-09-24T10:08:22;6.10;;;2.95;;
46116;SDS011;32591;48.102;11.772;2022-09-24T10:10:51;4.75;;;2.97;;
46116;SDS011;32591;48.102;11.772;2022-09-24T10:13:20;3.72;;;2.75;;
46116;SDS011;32591;48.102;11.772;2022-09-24T10:15:48;4.10;;;2.72;;
46116;SDS011;32591;48.102;11.772;2022-09-24T10:18:17;5.57;;;3.00;;
46116;SDS011;32591;48.102;11.772;2022-09-24T10:20:55;5.53;;;2.65;;
46116;SDS011;32591;48.102;11.772;2022-09-24T10:23:30;3.80;;;2.90;;
46116;SDS011;32591;48.102;11.772;2022-09-24T10:26:01;3.83;;;2.40;;
46116;SDS011;32591;48.102;11.772;2022-09-24T10:28:30;3.53;;;2.80;;
46116;SDS011;32591;48.102;11.772;2022-09-24T10:31:18;4.40;;;2.67;;
46116;SDS011;32591;48.102;11.772;2022-09-24T10:33:48;5.90;;;2.80;;
46116;SDS011;32591;48.102;11.772;2022-09-24T10:36:21;3.08;;;2.53;;
46116;SDS011;32591;48.102;11.772;2022-09-24T10:39:00;4.13;;;2.97;;
46116;SDS011;32591;48.102;11.772;2022-09-24T10:41:29;4.00;;;2.85;;
46116;SDS011;32591;48.102;11.772;2022-09-24T10:43:59;3.88;;;2.88;;
46116;SDS011;32591;48.102;11.772;2022-09-24T10:46:37;4.78;;;3.08;;
46116;SDS011;32591;48.102;11.772;2022-09-24T10:49:49;5.38;;;3.00;;
46116;SDS011;32591;48.102;11.772;2022-09-24T10:52:52;5.00;;;3.35;;
46116;SDS011;32591;48.102;11.772;2022-09-24T10:55:34;5.85;;;3.25;;
46116;SDS011;32591;48.102;11.772;2022-09-24T10:58:19;5.53;;;3.40;;
46116;SDS011;32591;48.102;11.772;2022-09-24T11:01:03;6.22;;;3.35;;
46116;SDS011;32591;48.102;11.772;2022-09-24T11:03:45;4.82;;;3.05;;
46116;SDS011;32591;48.102;11.772;2022-09-24T11:06:36;3.47;;;2.92;;
46116;SDS011;32591;48.102;11.772;2022-09-24T11:09:23;5.60;;;3.58;;
46116;SDS011;32591;48.102;11.772;2022-09-24T11:11:59;4.50;;;3.22;;
46116;SDS011;32591;48.102;11.772;2022-09-24T11:14:38;5.13;;;3.47;;
46116;SDS011;32591;48.102;11.772;2022-09-24T11:17:31;5.88;;;3.42;;
46116;SDS011;32591;48.102;11.772;2022-09-24T11:23:06;5.10;;;3.55;;
46116;SDS011;32591;48.102;11.772;2022-09-24T11:25:49;5.82;;;3.08;;
46116;SDS011;32591;48.102;11.772;2022-09-24T11:28:37;4.82;;;3.10;;
46116;SDS011;32591;48.102;11.772;2022-09-24T11:31:24;6.10;;;3.42;;
46116;SDS011;32591;48.102;11.772;2022-09-24T11:34:03;4.75;;;3.20;;
46116;SDS011;32591;48.102;11.772;2022-09-24T11:36:59;4.60;;;3.63;;
46116;SDS011;32591;48.102;11.772;2022-09-24T11:39:51;5.72;;;3.83;;
46116;SDS011;32591;48.102;11.772;2022-09-24T11:42:40;6.55;;;4.05;;
46116;SDS011;32591;48.102;11.772;2022-09-24T11:45:23;6.00;;;3.88;;
46116;SDS011;32591;48.102;11.772;2022-09-24T11:48:11;6.57;;;4.00;;
46116;SDS011;32591;48.102;11.772;2022-09-24T11:50:54;6.43;;;4.43;;
46116;SDS011;32591;48.102;11.772;2022-09-24T11:53:37;5.20;;;3.75;;
46116;SDS011;32591;48.102;11.772;2022-09-24T11:56:09;5.65;;;3.75;;
46116;SDS011;32591;48.102;11.772;2022-09-24T11:58:44;13.80;;;4.35;;
46116;SDS011;32591;48.102;11.772;2022-09-24T12:01:32;7.00;;;3.75;;
46116;SDS011;32591;48.102;11.772;2022-09-24T12:04:05;7.07;;;4.05;;
46116;SDS011;32591;48.102;11.772;2022-09-24T12:06:45;6.25;;;4.07;;
46116;SDS011;32591;48.102;11.772;2022-09-24T12:09:18;7.95;;;5.00;;
46116;SDS011;32591;48.102;11.772;2022-09-24T12:11:54;4.80;;;4.20;;
46116;SDS011;32591;48.102;11.772;2022-09-24T12:14:29;7.85;;;4.38;;
46116;SDS011;32591;48.102;11.772;2022-09-24T12:17:06;5.13;;;3.67;;
46116;SDS011;32591;48.102;11.772;2022-09-24T12:19:45;6.57;;;3.97;;
46116;SDS011;32591;48.102;11.772;2022-09-24T12:22:16;6.00;;;4.32;;
46116;SDS011;32591;48.102;11.772;2022-09-24T12:24:46;7.90;;;4.05;;
46116;SDS011;32591;48.102;11.772;2022-09-24T12:27:18;6.13;;;4.10;;
46116;SDS011;32591;48.102;11.772;2022-09-24T12:29:50;5.32;;;3.83;;
46116;SDS011;32591;48.102;11.772;2022-09-24T12:32:45;4.43;;;3.50;;
46116;SDS011;32591;48.102;11.772;2022-09-24T12:35:24;6.30;;;3.88;;
46116;SDS011;32591;48.102;11.772;2022-09-24T12:40:48;5.07;;;3.83;;
46116;SDS011;32591;48.102;11.772;2022-09-24T12:43:59;5.82;;;4.38;;
46116;SDS011;32591;48.102;11.772;2022-09-24T12:46:33;5.10;;;3.95;;
46116;SDS011;32591;48.102;11.772;2022-09-24T12:49:12;6.38;;;4.07;;
46116;SDS011;32591;48.102;11.772;2022-09-24T12:51:48;5.43;;;4.03;;
46116;SDS011;32591;48.102;11.772;2022-09-24T12:54:21;5.57;;;4.25;;
46116;SDS011;32591;48.102;11.772;2022-09-24T12:57:03;6.00;;;4.20;;
46116;SDS011;32591;48.102;11.772;2022-09-24T12:59:45;7.40;;;4.45;;
46116;SDS011;32591;48.102;11.772;2022-09-24T13:02:17;5.38;;;4.22;;
46116;SDS011;32591;48.102;11.772;2022-09-24T13:05:02;7.22;;;4.22;;
46116;SDS011;32591;48.102;11.772;2022-09-24T13:07:56;6.50;;;4.05;;
46116;SDS011;32591;48.102;11.772;2022-09-24T13:10:26;6.32;;;5.10;;
46116;SDS011;32591;48.102;11.772;2022-09-24T13:12:55;5.50;;;4.03;;
46116;SDS011;32591;48.102;11.772;2022-09-24T13:15:33;6.43;;;4.55;;
46116;SDS011;32591;48.102;11.772;2022-09-24T13:20:56;6.93;;;4.53;;
46116;SDS011;32591;48.102;11.772;2022-09-24T13:23:43;7.43;;;4.63;;
46116;SDS011;32591;48.102;11.772;2022-09-24T13:26:13;5.88;;;4.13;;
46116;SDS011;32591;48.102;11.772;2022-09-24T13:28:55;6.55;;;4.32;;
46116;SDS011;32591;48.102;11.772;2022-09-24T13:31:26;5.90;;;3.97;;
46116;SDS011;32591;48.102;11.772;2022-09-24T13:34:12;5.25;;;3.72;;
46116;SDS011;32591;48.102;11.772;2022-09-24T13:36:44;9.00;;;4.32;;
46116;SDS011;32591;48.102;11.772;2022-09-24T13:39:17;6.55;;;3.80;;
46116;SDS011;32591;48.102;11.772;2022-09-24T13:41:51;4.93;;;3.70;;
46116;SDS011;32591;48.102;11.772;2022-09-24T13:46:56;4.40;;;3.88;;
46116;SDS011;32591;48.102;11.772;2022-09-24T13:49:30;5.32;;;3.80;;
46116;SDS011;32591;48.102;11.772;2022-09-24T13:52:05;6.18;;;3.30;;
46116;SDS011;32591;48.102;11.772;2022-09-24T13:54:42;6.13;;;4.00;;
46116;SDS011;32591;48.102;11.772;2022-09-24T13:57:18;7.32;;;4.13;;
46116;SDS011;32591;48.102;11.772;2022-09-24T13:59:49;6.13;;;4.32;;
46116;SDS011;32591;48.102;11.772;2022-09-24T14:02:28;4.63;;;3.60;;
46116;SDS011;32591;48.102;11.772;2022-09-24T14:05:00;5.90;;;3.70;;
46116;SDS011;32591;48.102;11.772;2022-09-24T14:07:28;6.15;;;3.45;;
46116;SDS011;32591;48.102;11.772;2022-09-24T14:10:03;6.35;;;3.92;;
46116;SDS011;32591;48.102;11.772;2022-09-24T14:12:32;6.38;;;4.72;;
46116;SDS011;32591;48.102;11.772;2022-09-24T14:14:59;5.85;;;5.25;;
46116;SDS011;32591;48.102;11.772;2022-09-24T14:17:32;5.70;;;4.00;;
46116;SDS011;32591;48.102;11.772;2022-09-24T14:20:01;5.72;;;3.80;;
46116;SDS011;32591;48.102;11.772;2022-09-24T14:22:29;5.10;;;4.07;;
46116;SDS011;32591;48.102;11.772;2022-09-24T14:25:00;7.53;;;4.20;;
46116;SDS011;32591;48.102;11.772;2022-09-24T14:27:31;6.90;;;4.40;;
46116;SDS011;32591;48.102;11.772;2022-09-24T14:30:05;6.45;;;4.25;;
46116;SDS011;32591;48.102;11.772;2022-09-24T14:32:35;6.43;;;3.95;;
46116;SDS011;32591;48.102;11.772;2022-09-24T14:35:06;4.72;;;3.92;;
46116;SDS011;32591;48.102;11.772;2022-09-24T14:37:44;5.38;;;3.85;;
46116;SDS011;32591;48.102;11.772;2022-09-24T14:40:15;6.47;;;4.47;;
46116;SDS011;32591;48.102;11.772;2022-09-24T14:42:45;6.20;;;4.38;;
46116;SDS011;32591;48.102;11.772;2022-09-24T14:45:16;6.60;;;4.63;;
46116;SDS011;32591;48.102;11.772;2022-09-24T14:47:46;8.25;;;4.10;;
46116;SDS011;32591;48.102;11.772;2022-09-24T14:50:31;5.18;;;3.97;;
46116;SDS011;32591;48.102;11.772;2022-09-24T14:53:10;6.90;;;4.07;;
46116;SDS011;32591;48.102;11.772;2022-09-24T14:55:39;6.63;;;4.00;;
46116;SDS011;32591;48.102;11.772;2022-09-24T15:01:05;7.45;;;4.10;;
46116;SDS011;32591;48.102;11.772;2022-09-24T15:03:39;7.20;;;4.53;;
46116;SDS011;32591;48.102;11.772;2022-09-24T15:06:15;5.72;;;3.88;;
46116;SDS011;32591;48.102;11.772;2022-09-24T15:08:58;6.53;;;4.65;;
46116;SDS011;32591;48.102;11.772;2022-09-24T15:11:29;7.70;;;5.30;;
46116;SDS011;32591;48.102;11.772;2022-09-24T15:13:59;8.23;;;5.25;;
46116;SDS011;32591;48.102;11.772;2022-09-24T15:16:29;8.70;;;5.47;;
46116;SDS011;32591;48.102;11.772;2022-09-24T15:19:13;7.00;;;5.25;;
46116;SDS011;32591;48.102;11.772;2022-09-24T15:21:45;7.20;;;5.38;;
46116;SDS011;32591;48.102;11.772;2022-09-24T15:24:13;6.72;;;5.10;;
46116;SDS011;32591;48.102;11.772;2022-09-24T15:26:41;7.28;;;5.13;;